Time;durP1;ratioP1;P1;durP2;ratioP2;P2;SDS_P1;SDS_P2;PMS_P1;PMS_P2;Temp;Humidity;BMP_temperature;BMP_pressure;BME280_temperature;BME280_humidity;BME280_pressure;Samples;Min_cycle;Max_cycle;Signal;HPM_P1;HPM_P2
2023/05/03 00:02:31;;;;;;;2.30;0.90;;;;;;;9.94;100.00;101081.66;10624477;27;20045;-73
2023/05/03 00:07:32;;;;;;;3.20;0.93;;;;;;;9.95;100.00;101088.63;10623996;27;20490;-73
2023/05/03 00:12:32;;;;;;;6.10;0.90;;;;;;;9.95;100.00;101101.88;10624871;27;20432;-73
2023/05/03 00:17:34;;;;;;;5.60;1.10;;;;;;;10.03;100.00;101112.63;10623470;27;20129;-74
2023/05/03 00:22:35;;;;;;;2.88;1.02;;;;;;;9.98;100.00;101098.94;10623262;27;20067;-73
2023/05/03 00:27:36;;;;;;;4.00;0.93;;;;;;;9.99;100.00;101111.25;10623618;27;20118;-73
2023/05/03 00:32:37;;;;;;;4.25;0.93;;;;;;;9.98;100.00;101114.88;10623584;27;20581;-73
2023/05/03 00:37:38;;;;;;;3.28;0.90;;;;;;;9.79;100.00;101078.63;10514729;27;20437;-73
2023/05/03 00:42:38;;;;;;;7.45;0.80;;;;;;;9.62;100.00;101075.88;10592796;27;20141;-72
2023/05/03 00:47:39;;;;;;;2.60;0.98;;;;;;;9.69;100.00;101125.59;10623098;27;20035;-72
2023/05/03 00:52:40;;;;;;;2.80;0.82;;;;;;;9.12;100.00;101035.38;10623186;27;20039;-73
2023/05/03 00:57:41;;;;;;;8.32;1.05;;;;;;;9.21;100.00;101052.22;10579911;28;20039;-73
2023/05/03 01:02:42;;;;;;;5.55;1.50;;;;;;;9.62;100.00;101143.03;10580631;28;20479;-73
2023/05/03 01:07:42;;;;;;;2.50;1.00;;;;;;;9.63;100.00;101141.22;10597648;27;20383;-73
2023/05/03 01:12:55;;;;;;;7.25;1.70;;;;;;;9.24;100.00;101077.63;10621708;27;20065;-73
2023/05/03 01:18:06;;;;;;;6.70;1.45;;;;;;;9.63;100.00;101155.31;10603648;28;20059;-73
2023/05/03 01:23:41;;;;;;;4.78;1.33;;;;;;;9.52;100.00;101160.81;10606642;28;20043;-73
2023/05/03 01:28:42;;;;;;;8.25;2.05;;;;;;;8.87;100.00;101070.41;10612743;28;20088;-73
2023/05/03 01:33:52;;;;;;;8.88;2.20;;;;;;;9.25;100.00;101157.03;10581708;28;20039;-73
2023/05/03 01:38:53;;;;;;;15.73;2.75;;;;;;;9.20;100.00;101166.38;10579088;28;20039;-73
2023/05/03 01:43:55;;;;;;;17.75;4.05;;;;;;;8.39;100.00;101061.41;10579109;28;20036;-73
2023/05/03 01:48:55;;;;;;;28.75;5.18;;;;;;;8.98;100.00;101173.63;10596391;28;20122;-73
2023/05/03 01:53:56;;;;;;;18.17;3.80;;;;;;;8.99;100.00;101171.81;10621325;28;20142;-73
2023/05/03 01:58:57;;;;;;;12.55;2.85;;;;;;;8.82;100.00;101152.09;10514851;28;20081;-73
2023/05/03 02:03:58;;;;;;;30.80;3.42;;;;;;;8.73;100.00;101129.91;10377853;28;20038;-73
2023/05/03 02:08:58;;;;;;;12.70;2.38;;;;;;;9.07;100.00;101180.75;10595865;28;20035;-73
2023/05/03 02:13:59;;;;;;;12.40;2.25;;;;;;;9.06;100.00;101151.72;10584975;28;20495;-74
2023/05/03 02:19:00;;;;;;;8.40;2.35;;;;;;;9.13;100.00;101169.59;10578529;28;20067;-73
2023/05/03 02:24:01;;;;;;;7.82;2.40;;;;;;;9.15;100.00;101185.34;10584368;28;20035;-73
2023/05/03 02:29:02;;;;;;;19.52;4.13;;;;;;;9.07;100.00;101182.56;10610135;27;20031;-74
2023/05/03 02:34:03;;;;;;;8.70;3.85;;;;;;;8.93;100.00;101151.16;10615746;27;20104;-74
2023/05/03 02:39:04;;;;;;;7.97;3.28;;;;;;;8.55;100.00;101034.41;10618620;27;20088;-74
2023/05/03 02:44:04;;;;;;;8.13;3.47;;;;;;;9.90;100.00;101204.16;10570313;27;20126;-74
2023/05/03 02:49:06;;;;;;;7.18;3.35;;;;;;;9.75;100.00;101132.13;10598871;27;20043;-73
2023/05/03 02:54:06;;;;;;;5.82;3.33;;;;;;;9.92;100.00;101128.72;10578655;28;20047;-73
2023/05/03 02:59:07;;;;;;;6.22;3.22;;;;;;;10.14;100.00;101140.81;10578263;28;20061;-73
2023/05/03 03:04:08;;;;;;;5.70;3.05;;;;;;;10.61;100.00;101182.44;10580163;28;20050;-73
2023/05/03 03:09:09;;;;;;;5.63;3.25;;;;;;;11.14;100.00;101216.25;10578722;28;20039;-72
2023/05/03 03:14:10;;;;;;;4.43;2.75;;;;;;;11.47;99.37;101140.25;10578887;28;20582;-72
2023/05/03 03:19:11;;;;;;;4.15;2.55;;;;;;;13.26;96.11;101226.63;10580910;27;20061;-74
2023/05/03 03:24:12;;;;;;;3.30;2.40;;;;;;;13.23;94.27;101188.56;10616731;27;20050;-74
2023/05/03 03:29:12;;;;;;;3.47;2.10;;;;;;;14.38;91.06;101209.88;10625614;27;20042;-75
2023/05/03 03:34:13;;;;;;;2.03;1.52;;;;;;;14.92;86.74;101169.88;10610662;27;20047;-74
2023/05/03 03:39:14;;;;;;;3.42;1.70;;;;;;;15.34;84.55;101157.88;10621000;27;20092;-73
2023/05/03 03:44:15;;;;;;;3.42;2.13;;;;;;;14.97;85.26;101199.63;10625872;27;20050;-73
2023/05/03 03:49:16;;;;;;;2.75;1.73;;;;;;;14.84;84.99;101153.91;10624218;27;20418;-74
2023/05/03 03:54:17;;;;;;;3.38;1.40;;;;;;;15.70;81.82;101243.00;10614294;27;20047;-74
2023/05/03 03:59:18;;;;;;;2.53;1.40;;;;;;;15.09;81.78;101229.50;10621461;27;20059;-76
2023/05/03 04:04:19;;;;;;;7.03;2.03;;;;;;;14.02;83.02;101170.19;10617494;27;20141;-74
2023/05/03 04:09:20;;;;;;;3.65;1.88;;;;;;;14.96;82.08;101229.25;10570623;28;20101;-73
2023/05/03 04:14:21;;;;;;;2.42;1.75;;;;;;;15.66;80.18;101242.50;10582324;28;20094;-73
2023/05/03 04:19:24;;;;;;;2.05;1.42;;;;;;;15.62;79.53;101237.69;10581208;28;20538;-74
2023/05/03 04:24:29;;;;;;;2.97;1.88;;;;;;;16.75;76.70;101213.44;10583495;27;20047;-73
2023/05/03 04:29:30;;;;;;;2.58;1.55;;;;;;;17.08;74.18;101162.84;10579232;28;20077;-74
2023/05/03 04:34:31;;;;;;;2.05;1.35;;;;;;;16.98;72.85;101183.78;10589196;27;20046;-74
2023/05/03 04:39:32;;;;;;;3.38;1.52;;;;;;;18.07;70.68;101223.03;10580072;28;20054;-73
2023/05/03 04:44:33;;;;;;;3.20;1.60;;;;;;;18.45;68.87;101218.13;10579499;28;20513;-72
2023/05/03 04:49:34;;;;;;;2.80;1.40;;;;;;;18.60;67.29;101232.28;10562940;28;20051;-73
2023/05/03 04:54:35;;;;;;;2.65;1.40;;;;;;;18.30;67.58;101214.72;10522008;28;20438;-72
2023/05/03 04:59:36;;;;;;;3.72;1.70;;;;;;;17.58;68.71;101230.88;10537051;28;20119;-72
2023/05/03 05:04:36;;;;;;;2.03;1.40;;;;;;;16.71;70.12;101244.34;10537036;28;20495;-73
2023/05/03 05:09:37;;;;;;;2.08;1.23;;;;;;;15.84;71.14;101152.97;10537861;28;20067;-72
2023/05/03 05:14:38;;;;;;;2.80;1.42;;;;;;;15.86;71.68;101232.16;10538060;28;20060;-72
2023/05/03 05:19:40;;;;;;;6.25;1.50;;;;;;;15.20;72.22;101158.69;10536898;28;20047;-72
2023/05/03 05:24:41;;;;;;;3.42;1.50;;;;;;;15.64;72.59;101230.28;10537371;28;20044;-72
2023/05/03 05:29:42;;;;;;;1.90;1.10;;;;;;;15.75;71.98;101229.91;10537845;28;20048;-72
2023/05/03 05:34:44;;;;;;;2.00;1.10;;;;;;;15.88;71.88;101238.16;10535698;28;20419;-72
2023/05/03 06:16:58;;;;;;;3.58;1.33;;;;;;;17.71;65.32;101192.56;10481313;28;20402;-74
2023/05/03 06:21:59;;;;;;;4.68;1.50;;;;;;;17.94;66.17;101229.97;10478090;28;20089;-73
2023/05/03 06:27:01;;;;;;;3.15;1.80;;;;;;;17.40;66.71;101165.22;10440864;28;20090;-73
2023/05/03 06:32:02;;;;;;;3.10;1.77;;;;;;;17.32;67.66;101180.44;10440928;28;20086;-73
2023/05/03 06:37:03;;;;;;;2.40;1.17;;;;;;;17.86;66.69;101197.03;10441099;28;20557;-74
2023/05/03 06:42:04;;;;;;;2.58;1.60;;;;;;;18.20;66.17;101229.34;10440345;28;20098;-74
2023/05/03 06:47:04;;;;;;;3.03;1.35;;;;;;;17.56;66.00;101163.09;10440703;28;20041;-72
2023/05/03 06:52:06;;;;;;;2.22;1.48;;;;;;;18.35;65.34;101239.19;10440682;28;20150;-72
2023/05/03 06:57:06;;;;;;;2.80;1.85;;;;;;;18.36;64.76;101232.75;10440478;28;20134;-74
2023/05/03 07:02:07;;;;;;;2.22;1.45;;;;;;;18.34;64.65;101226.75;10440299;28;20121;-73
2023/05/03 07:07:08;;;;;;;3.03;1.88;;;;;;;18.36;64.66;101230.06;10439537;28;20408;-73
2023/05/03 07:12:09;;;;;;;4.93;1.90;;;;;;;17.72;65.51;101158.47;10439796;28;20041;-74
2023/05/03 07:17:10;;;;;;;2.80;1.90;;;;;;;18.64;64.80;101230.88;10416268;28;20124;-73
2023/05/03 07:22:11;;;;;;;2.55;1.60;;;;;;;18.31;63.61;101157.19;10412234;28;20128;-74
2023/05/03 07:27:14;;;;;;;3.17;1.90;;;;;;;18.97;64.25;101214.06;10412065;28;20044;-74
2023/05/03 07:32:15;;;;;;;3.57;1.83;;;;;;;18.77;63.37;101167.38;10411437;28;20481;-75
2023/05/03 07:37:16;;;;;;;3.33;1.50;;;;;;;19.30;63.14;101224.91;10412121;28;20125;-74
2023/05/03 07:42:17;;;;;;;2.35;1.50;;;;;;;19.39;62.20;101217.47;10412019;28;20045;-74
2023/05/03 07:47:18;;;;;;;3.25;1.23;;;;;;;18.90;61.86;101141.31;10410895;28;20508;-73
2023/05/03 07:52:19;;;;;;;2.03;1.10;;;;;;;19.84;59.98;101206.97;10410602;28;20041;-74
2023/05/03 07:57:22;;;;;;;2.40;1.33;;;;;;;19.64;60.05;101206.91;10411043;28;20052;-73
2023/05/03 08:02:23;;;;;;;2.53;1.60;;;;;;;19.17;61.07;101211.41;10410627;28;20048;-74
2023/05/03 08:07:24;;;;;;;2.95;1.38;;;;;;;19.57;60.32;101215.00;10410767;28;20498;-73
2023/05/03 08:12:25;;;;;;;5.82;3.10;;;;;;;19.23;61.74;101177.44;10410291;28;20057;-75
2023/05/03 08:17:26;;;;;;;2.85;1.70;;;;;;;19.42;61.22;101152.41;10410220;28;20042;-76
2023/05/03 08:22:27;;;;;;;3.65;1.60;;;;;;;19.30;60.02;101133.31;10410561;28;20045;-74
2023/05/03 08:27:28;;;;;;;2.38;1.20;;;;;;;19.09;59.91;101182.81;10409135;28;20085;-74
2023/05/03 08:32:29;;;;;;;2.33;1.27;;;;;;;18.91;60.44;101121.47;10410081;28;20132;-74
2023/05/03 08:37:30;;;;;;;1.90;1.23;;;;;;;19.86;59.97;101196.78;10409334;28;20046;-74
2023/05/03 08:42:32;;;;;;;2.05;1.30;;;;;;;19.85;59.26;101187.03;10409752;28;20133;-74
2023/05/03 08:47:36;;;;;;;1.92;1.13;;;;;;;19.49;59.87;101190.13;10409045;28;20042;-73
2023/05/03 08:52:39;;;;;;;;;;;;;;;19.49;60.49;101201.72;10409180;28;20041;-72
2023/05/03 08:57:40;;;;;;;4.35;1.40;;;;;;;19.22;59.60;101108.44;10409335;28;19939;-75
2023/05/03 09:02:40;;;;;;;2.10;1.20;;;;;;;19.59;60.14;101180.59;10409194;28;20042;-74
2023/05/03 09:08:01;;;;;;;4.03;1.60;;;;;;;19.65;59.75;101194.28;10408513;28;20077;-74
2023/05/03 09:13:02;;;;;;;3.65;1.15;;;;;;;19.13;60.88;101184.03;10409287;28;20061;-73
2023/05/03 09:18:17;;;;;;;5.18;1.30;;;;;;;18.94;60.37;101195.59;10408596;28;20037;-76
2023/05/03 09:23:30;;;;;;;3.63;1.40;;;;;;;18.01;61.82;101128.72;10407508;28;20497;-73
2023/05/03 09:28:39;;;;;;;3.90;1.60;;;;;;;18.29;62.46;101186.16;10407715;28;20041;-73
2023/05/03 09:33:40;;;;;;;4.70;1.98;;;;;;;17.91;62.50;101170.41;10408020;28;20038;-74
2023/05/03 09:38:41;;;;;;;2.40;1.55;;;;;;;17.68;62.98;101158.03;10407589;28;20454;-73
2023/05/03 09:43:54;;;;;;;2.00;1.25;;;;;;;17.87;62.24;101185.28;10407314;28;20121;-73
2023/05/03 09:48:56;;;;;;;2.28;1.70;;;;;;;17.93;62.52;101198.75;10408045;28;20124;-76
2023/05/03 09:53:58;;;;;;;2.35;1.35;;;;;;;18.49;60.75;101192.50;10408278;28;20102;-73
2023/05/03 09:58:59;;;;;;;3.13;1.58;;;;;;;19.20;60.12;101167.88;10406846;28;20090;-73
2023/05/03 10:04:01;;;;;;;4.05;1.20;;;;;;;19.96;57.96;101185.59;10406594;28;20565;-73
2023/05/03 10:09:13;;;;;;;2.70;1.27;;;;;;;20.19;56.64;101172.47;10407848;28;20140;-76
2023/05/03 10:14:14;;;;;;;3.42;1.23;;;;;;;20.42;55.67;101192.75;10406882;28;20445;-75
2023/05/03 10:19:28;;;;;;;5.80;1.02;;;;;;;20.38;55.44;101181.53;10407274;28;20098;-73
2023/05/03 10:24:29;;;;;;;4.35;1.27;;;;;;;20.45;55.28;101176.94;10407191;28;20037;-74
2023/05/03 10:29:36;;;;;;;3.30;1.10;;;;;;;20.64;54.63;101183.34;10406088;28;20045;-76
2023/05/03 10:34:39;;;;;;;1.90;0.98;;;;;;;19.92;55.10;101128.53;10405996;28;20042;-73
2023/05/03 10:39:46;;;;;;;2.10;1.30;;;;;;;20.37;54.41;101174.50;10406503;28;20511;-74
2023/05/03 10:44:52;;;;;;;3.17;1.25;;;;;;;20.16;53.56;101143.22;10406309;28;20045;-75
2023/05/03 10:50:10;;;;;;;2.10;1.40;;;;;;;20.82;54.10;101195.31;10408051;28;20443;-74
2023/05/03 10:55:14;;;;;;;8.95;1.65;;;;;;;19.79;55.59;101096.19;10413222;28;20057;-73
2023/05/03 11:00:18;;;;;;;3.65;1.70;;;;;;;20.02;55.28;101153.19;10412510;28;20496;-73
2023/05/03 11:05:20;;;;;;;2.15;1.40;;;;;;;20.20;55.56;101186.78;10412107;28;20041;-73
2023/05/03 11:10:21;;;;;;;4.53;1.88;;;;;;;20.01;55.49;101175.81;10412725;28;20075;-77
2023/05/03 11:15:22;;;;;;;1.92;1.42;;;;;;;19.78;56.28;101194.31;10412739;28;20091;-74
2023/05/03 11:20:22;;;;;;;2.65;1.90;;;;;;;19.83;55.70;101195.34;10412845;28;20050;-73
2023/05/03 11:25:23;;;;;;;2.10;1.30;;;;;;;19.50;55.31;101141.38;10411518;28;20036;-78
2023/05/03 11:30:25;;;;;;;1.88;1.10;;;;;;;19.82;54.68;101179.34;10412485;28;20561;-73
2023/05/03 11:35:28;;;;;;;5.90;1.27;;;;;;;20.05;54.03;101171.66;10411343;28;20069;-73
2023/05/03 11:40:29;;;;;;;2.53;1.70;;;;;;;20.12;53.65;101163.53;10412126;28;20045;-74
2023/05/03 11:45:37;;;;;;;2.72;0.93;;;;;;;20.11;51.83;101152.97;10411699;28;20272;-77
2023/05/03 11:50:50;;;;;;;2.28;1.17;;;;;;;19.88;52.03;101153.44;10411455;28;20041;-75
2023/05/03 11:55:52;;;;;;;4.10;2.03;;;;;;;19.41;51.59;101060.97;10411276;28;20302;-73
2023/05/03 12:00:55;;;;;;;2.90;1.90;;;;;;;20.01;49.89;101116.50;10410194;28;20033;-75
2023/05/03 13:30:38;;;;;;;3.30;1.10;;;;;;;20.62;49.34;101065.84;10546761;27;20488;-75
2023/05/03 13:35:39;;;;;;;2.17;1.10;;;;;;;20.47;48.19;101052.59;10507161;28;20071;-73
2023/05/03 13:40:40;;;;;;;1.92;1.20;;;;;;;20.40;48.84;101049.94;10508808;28;20068;-73
2023/05/03 13:45:41;;;;;;;2.55;1.40;;;;;;;20.47;50.17;101049.91;10506179;28;20492;-73
2023/05/03 13:50:42;;;;;;;1.80;1.05;;;;;;;20.13;49.58;101060.00;10529338;28;20402;-75
2023/05/03 13:55:43;;;;;;;3.03;1.20;;;;;;;19.74;50.01;101037.53;10497227;28;20056;-74
2023/05/03 14:00:44;;;;;;;3.13;1.20;;;;;;;19.15;50.03;100942.28;10488724;28;20045;-74
2023/05/03 14:05:46;;;;;;;1.60;1.00;;;;;;;19.29;50.68;100988.88;10488711;28;20057;-72
2023/05/03 14:10:46;;;;;;;2.35;1.20;;;;;;;19.76;51.28;101061.56;10514431;28;20091;-72
2023/05/03 14:15:47;;;;;;;2.63;1.45;;;;;;;19.77;50.90;101061.38;10501667;28;20075;-75
2023/05/03 14:20:49;;;;;;;3.40;1.15;;;;;;;19.92;51.31;101071.88;10488059;28;20044;-74
2023/05/03 14:25:51;;;;;;;2.22;1.30;;;;;;;19.61;50.60;101029.44;10487665;28;20044;-73
2023/05/03 14:30:51;;;;;;;4.35;1.30;;;;;;;19.52;51.40;101068.44;10464122;28;20041;-77
2023/05/03 14:35:52;;;;;;;2.83;1.30;;;;;;;19.13;52.39;101059.34;10459965;28;20037;-73
2023/05/03 14:40:53;;;;;;;3.03;1.40;;;;;;;18.75;52.82;101043.75;10459534;28;20049;-74
2023/05/03 14:45:54;;;;;;;2.65;1.35;;;;;;;18.44;54.36;101052.38;10459673;28;20514;-73
2023/05/03 14:50:55;;;;;;;2.25;1.50;;;;;;;18.07;55.73;101054.50;10460156;28;20044;-75
2023/05/03 14:55:56;;;;;;;3.25;1.50;;;;;;;17.96;56.57;101063.13;10459640;28;20037;-72
2023/05/03 15:00:57;;;;;;;5.38;1.60;;;;;;;17.73;57.24;101049.94;10469170;28;20508;-72
2023/05/03 15:05:59;;;;;;;3.55;1.50;;;;;;;17.85;57.53;101077.13;10459055;28;20484;-72
2023/05/03 15:11:00;;;;;;;2.38;1.38;;;;;;;17.85;57.82;101075.25;10458591;28;20115;-72
2023/05/03 15:16:01;;;;;;;3.20;1.50;;;;;;;17.28;58.85;101009.97;10457458;28;20472;-71
2023/05/03 15:21:02;;;;;;;2.70;1.65;;;;;;;17.67;59.57;101086.47;10456100;28;20044;-72
2023/05/03 15:26:03;;;;;;;2.45;1.58;;;;;;;17.09;60.00;101019.56;10457297;28;20082;-73
2023/05/03 15:31:04;;;;;;;2.70;1.58;;;;;;;17.19;60.22;101083.63;10457538;28;20040;-72
2023/05/03 15:36:07;;;;;;;3.45;1.58;;;;;;;16.63;60.74;101033.34;10458207;28;20045;-74
2023/05/03 15:41:08;;;;;;;3.42;1.70;;;;;;;16.82;61.46;101101.69;10477283;28;20120;-67
2023/05/03 15:46:08;;;;;;;2.60;1.60;;;;;;;16.58;62.19;101097.47;10457334;28;20503;-68
2023/05/03 15:51:09;;;;;;;6.18;2.10;;;;;;;16.44;63.00;101112.56;10456948;28;20073;-71
2023/05/03 15:56:11;;;;;;;4.45;1.70;;;;;;;16.26;63.70;101117.47;10476361;28;20032;-69
2023/05/03 16:01:12;;;;;;;4.60;1.92;;;;;;;16.06;64.46;101127.94;10482282;28;20072;-70
2023/05/03 16:06:16;;;;;;;3.72;1.70;;;;;;;15.91;65.87;101140.50;10488681;28;20468;-70
2023/05/03 16:11:17;;;;;;;3.58;1.95;;;;;;;15.70;65.84;101138.53;10467807;28;20067;-69
2023/05/03 16:16:18;;;;;;;3.60;2.30;;;;;;;15.46;66.64;101121.63;10465978;28;20049;-70
2023/05/03 16:21:18;;;;;;;2.85;1.63;;;;;;;15.39;67.25;101147.47;10454366;28;20048;-69
2023/05/03 16:26:20;;;;;;;2.95;1.95;;;;;;;14.86;68.28;101093.00;10455435;28;20064;-69
2023/05/03 16:31:21;;;;;;;4.97;2.20;;;;;;;15.17;68.72;101156.38;10454730;28;20045;-69
2023/05/03 16:36:23;;;;;;;3.30;1.90;;;;;;;14.82;69.47;101129.16;10455769;28;20041;-69
2023/05/03 16:41:24;;;;;;;4.03;2.17;;;;;;;14.91;69.97;101168.22;10455348;28;20041;-69
2023/05/03 16:46:25;;;;;;;3.28;2.03;;;;;;;14.57;70.58;101123.13;10455456;28;20067;-70
2023/05/03 16:51:26;;;;;;;4.25;1.80;;;;;;;14.79;70.92;101194.53;10454810;28;20045;-67
2023/05/03 16:56:29;;;;;;;3.67;2.20;;;;;;;14.53;71.51;101176.09;10453848;28;20047;-68
2023/05/03 17:01:30;;;;;;;5.70;2.45;;;;;;;14.54;72.31;101204.50;10455176;28;20037;-68
2023/05/03 17:06:31;;;;;;;3.22;2.03;;;;;;;14.46;72.96;101206.34;10462011;28;20044;-71
2023/05/03 17:11:31;;;;;;;3.60;2.28;;;;;;;14.26;73.46;101208.56;10457227;28;20049;-67
2023/05/03 17:16:32;;;;;;;4.05;2.47;;;;;;;14.24;73.93;101229.28;10474383;28;20094;-67
2023/05/03 17:21:33;;;;;;;8.38;3.88;;;;;;;14.18;74.31;101232.63;10454133;28;20516;-69
2023/05/03 17:26:34;;;;;;;6.43;2.58;;;;;;;13.86;74.65;101191.63;10465552;28;20064;-70
2023/05/03 17:31:35;;;;;;;5.88;2.95;;;;;;;13.97;75.03;101236.69;10460791;28;20103;-68
2023/05/03 17:36:36;;;;;;;3.67;2.83;;;;;;;13.84;75.12;101225.66;10453500;28;20049;-70
2023/05/03 17:41:38;;;;;;;4.10;2.80;;;;;;;13.67;75.40;101203.47;10478862;28;20115;-69
2023/05/03 17:46:38;;;;;;;4.20;2.67;;;;;;;13.72;76.07;101229.66;10494924;28;20128;-70
2023/05/03 17:51:39;;;;;;;4.97;2.92;;;;;;;13.53;76.99;101218.31;10474323;28;20128;-69
2023/05/03 17:56:43;;;;;;;5.68;3.10;;;;;;;13.54;78.36;101246.69;10472353;28;20040;-68
2023/05/03 18:01:43;;;;;;;4.00;2.70;;;;;;;13.26;77.42;101218.63;10495105;28;20097;-69
2023/05/03 18:06:44;;;;;;;3.92;2.70;;;;;;;13.40;78.35;101232.16;10472139;28;20090;-69
2023/05/03 18:11:47;;;;;;;3.50;2.47;;;;;;;12.97;78.70;101169.19;10461097;28;20132;-68
2023/05/03 18:16:47;;;;;;;3.92;3.03;;;;;;;13.29;78.59;101235.13;10460282;28;20048;-69
2023/05/03 18:21:48;;;;;;;7.22;2.85;;;;;;;13.15;78.77;101220.56;10462873;28;20047;-67
2023/05/03 18:26:49;;;;;;;4.20;2.72;;;;;;;13.18;79.18;101233.56;10482768;28;20519;-68
2023/05/03 18:31:53;;;;;;;3.75;2.65;;;;;;;12.80;79.16;101165.63;10461770;28;20039;-68
2023/05/03 18:36:54;;;;;;;4.10;2.50;;;;;;;13.18;79.23;101238.91;10468994;28;20076;-68
2023/05/03 18:41:55;;;;;;;3.30;2.47;;;;;;;13.13;79.75;101222.56;10459441;28;20061;-67
2023/05/03 18:46:56;;;;;;;9.82;2.67;;;;;;;13.10;79.58;101224.72;10459298;28;20504;-67
2023/05/03 18:51:57;;;;;;;4.90;2.45;;;;;;;13.07;79.18;101231.19;10459870;28;20041;-67
2023/05/03 18:56:59;;;;;;;7.65;2.58;;;;;;;12.90;79.65;101221.50;10470003;28;20472;-66
2023/05/03 19:02:00;;;;;;;3.90;2.30;;;;;;;12.40;80.09;101164.50;10458817;28;20091;-66
2023/05/03 19:07:01;;;;;;;4.55;2.80;;;;;;;12.62;80.96;101211.03;10465798;28;20044;-68
2023/05/03 19:12:02;;;;;;;6.00;3.05;;;;;;;12.57;81.42;101222.19;10464893;28;20490;-67
2023/05/03 19:17:02;;;;;;;4.90;3.63;;;;;;;12.31;81.85;101200.09;10493997;28;20076;-68
2023/05/03 19:22:03;;;;;;;4.07;2.88;;;;;;;12.30;82.65;101209.06;10499864;28;20068;-66
2023/05/03 19:27:04;;;;;;;5.88;3.13;;;;;;;12.15;83.27;101198.16;10499081;28;20056;-67
2023/05/03 19:32:05;;;;;;;5.85;2.92;;;;;;;12.13;83.45;101212.63;10491331;28;20033;-70
2023/05/03 19:37:06;;;;;;;4.78;2.97;;;;;;;12.13;83.15;101210.78;10499012;28;20037;-70
2023/05/03 19:42:07;;;;;;;4.95;2.50;;;;;;;12.08;82.67;101213.09;10493458;28;20048;-71
2023/05/03 19:47:08;;;;;;;3.92;2.75;;;;;;;11.13;81.82;101053.22;10473549;28;20036;-69
2023/05/03 19:52:10;;;;;;;4.07;2.20;;;;;;;11.61;81.34;101121.06;10450404;28;20045;-70
2023/05/03 19:57:10;;;;;;;4.18;3.13;;;;;;;12.14;80.79;101207.13;10464585;28;20385;-70
2023/05/03 20:02:11;;;;;;;4.32;2.80;;;;;;;12.09;80.13;101193.47;10466255;28;20045;-70
2023/05/03 20:07:12;;;;;;;6.28;2.80;;;;;;;12.08;79.90;101208.63;10456030;28;20055;-70
2023/05/03 20:12:13;;;;;;;3.83;2.72;;;;;;;11.93;79.92;101180.03;10455909;28;20150;-71
2023/05/03 20:17:14;;;;;;;5.13;2.40;;;;;;;12.02;79.45;101208.38;10456406;28;20040;-71
2023/05/03 20:22:16;;;;;;;5.70;2.83;;;;;;;11.94;79.64;101211.84;10455994;28;20048;-70
2023/05/03 20:27:17;;;;;;;4.55;2.60;;;;;;;11.65;80.13;101170.31;10455122;28;20064;-72
2023/05/03 20:32:17;;;;;;;5.25;2.80;;;;;;;11.76;80.03;101209.19;10460471;28;20132;-69
2023/05/03 20:37:18;;;;;;;5.90;2.88;;;;;;;11.64;80.06;101195.28;10480981;28;20051;-70
2023/05/03 20:42:19;;;;;;;6.68;2.90;;;;;;;11.17;80.13;101130.84;10496140;28;20040;-70
2023/05/03 20:47:21;;;;;;;4.28;2.72;;;;;;;11.02;80.52;101121.75;10495997;28;20045;-70
2023/05/03 20:52:22;;;;;;;5.05;2.88;;;;;;;11.58;80.75;101213.69;10496584;28;20142;-70
2023/05/03 20:57:23;;;;;;;5.05;2.97;;;;;;;11.53;80.97;101214.13;10496368;28;20126;-69
2023/05/03 21:02:23;;;;;;;5.65;3.17;;;;;;;11.50;81.11;101209.13;10490595;28;20051;-70
2023/05/03 21:07:24;;;;;;;11.60;3.38;;;;;;;11.53;81.46;101218.63;10457794;28;20047;-70
2023/05/03 21:12:25;;;;;;;4.95;3.22;;;;;;;11.51;81.73;101215.28;10454423;28;20040;-70
2023/05/03 21:17:26;;;;;;;4.93;3.38;;;;;;;11.50;82.00;101219.78;10454646;28;20048;-69
2023/05/03 21:22:28;;;;;;;5.75;3.42;;;;;;;11.53;82.11;101210.66;10454649;28;20044;-70
2023/05/03 21:27:29;;;;;;;6.50;3.20;;;;;;;11.53;81.55;101186.69;10454715;28;20065;-70
2023/05/03 21:32:30;;;;;;;5.63;3.22;;;;;;;11.64;81.54;101197.13;10454725;28;20037;-70
2023/05/03 21:37:30;;;;;;;4.60;3.25;;;;;;;11.65;81.72;101201.44;10454682;28;20067;-70
2023/05/03 21:42:31;;;;;;;5.53;3.00;;;;;;;11.66;81.37;101200.44;10462551;28;20557;-70
2023/05/03 21:47:32;;;;;;;5.13;3.35;;;;;;;11.60;80.81;101183.25;10461509;28;20523;-70
2023/05/03 21:52:33;;;;;;;6.78;3.40;;;;;;;11.74;81.08;101197.00;10462106;28;20067;-71
2023/05/03 21:57:34;;;;;;;4.93;3.00;;;;;;;11.73;80.95;101198.84;10461142;28;20408;-70
2023/05/03 22:02:34;;;;;;;4.60;3.28;;;;;;;11.62;80.94;101185.78;10461813;28;20041;-69
2023/05/03 22:07:35;;;;;;;10.38;3.30;;;;;;;11.69;81.29;101197.47;10461292;28;20045;-70
2023/05/03 22:12:36;;;;;;;4.88;3.38;;;;;;;11.20;81.04;101127.91;10461218;28;20500;-70
2023/05/03 22:17:37;;;;;;;5.40;3.22;;;;;;;11.61;81.44;101197.41;10460909;28;20049;-70
2023/05/03 22:22:38;;;;;;;4.97;3.22;;;;;;;11.01;82.00;101107.63;10460522;28;20590;-70
2023/05/03 22:27:38;;;;;;;4.85;3.22;;;;;;;11.38;82.07;101165.13;10460830;28;20065;-70
2023/05/03 22:32:40;;;;;;;4.32;3.28;;;;;;;11.45;82.49;101179.47;10460587;28;20047;-70
2023/05/03 22:37:41;;;;;;;7.22;3.63;;;;;;;11.37;82.36;101166.94;10460278;28;20492;-70
2023/05/03 22:42:41;;;;;;;6.68;3.47;;;;;;;11.34;81.80;101153.13;10458537;28;20037;-70
2023/05/03 22:47:42;;;;;;;9.10;3.67;;;;;;;11.42;81.21;101171.78;10460085;28;20511;-70
2023/05/03 22:52:43;;;;;;;6.03;3.55;;;;;;;10.89;80.76;101056.50;10458537;28;20049;-70
2023/05/03 22:57:44;;;;;;;5.50;3.67;;;;;;;10.99;80.64;101068.88;10457767;28;20037;-71
2023/05/03 23:02:45;;;;;;;5.47;3.40;;;;;;;10.92;81.10;101061.53;10459357;28;20051;-70
2023/05/03 23:07:46;;;;;;;6.78;3.50;;;;;;;11.42;80.75;101140.69;10457780;28;20066;-70
2023/05/03 23:12:47;;;;;;;6.68;3.92;;;;;;;11.38;80.42;101142.00;10458791;28;20116;-70
2023/05/03 23:17:47;;;;;;;5.80;3.35;;;;;;;10.92;80.09;101061.53;10458043;28;20041;-70
2023/05/03 23:22:48;;;;;;;6.68;3.75;;;;;;;10.82;79.67;101043.97;10458628;28;20040;-70
2023/05/03 23:27:49;;;;;;;5.70;3.50;;;;;;;11.33;80.20;101128.31;10458083;28;20067;-70
2023/05/03 23:32:50;;;;;;;6.82;3.80;;;;;;;11.01;79.50;101062.44;10457001;28;20191;-70
2023/05/03 23:37:50;;;;;;;6.15;3.65;;;;;;;11.38;79.70;101123.38;10460076;28;20033;-70
2023/05/03 23:42:51;;;;;;;6.30;3.40;;;;;;;11.06;79.68;101064.59;10465949;28;20560;-70
2023/05/03 23:47:52;;;;;;;5.55;3.60;;;;;;;11.43;79.46;101118.44;10465806;28;20048;-69
2023/05/03 23:52:53;;;;;;;5.40;3.45;;;;;;;11.43;79.33;101113.13;10481019;28;20041;-70
2023/05/03 23:57:54;;;;;;;6.25;3.70;;;;;;;11.11;79.25;101054.34;10497827;28;20045;-69
